Time;durP1;ratioP1;P1;durP2;ratioP2;P2;SDS_P1;SDS_P2;PMS_P1;PMS_P2;Temp;Humidity;BMP_temperature;BMP_pressure;BME280_temperature;BME280_humidity;BME280_pressure;Samples;Min_cycle;Max_cycle;Signal;HPM_P1;HPM_P2
2022/02/21 00:01:58;;;;;;;3.33;1.67;;;;;;;6.21;46.82;97897.28;5059703;28;20618;-72
2022/02/21 00:04:25;;;;;;;2.70;1.60;;;;;;;6.13;46.64;97921.03;5093111;28;20126;-72
2022/02/21 00:06:51;;;;;;;2.73;1.73;;;;;;;5.97;47.04;97885.03;5060245;28;20484;-72
2022/02/21 00:09:18;;;;;;;2.93;1.70;;;;;;;5.88;47.24;97883.41;5059256;28;20035;-72
2022/02/21 00:11:44;;;;;;;2.80;1.40;;;;;;;5.98;47.02;97894.56;5041003;28;20043;-72
2022/02/21 00:14:10;;;;;;;1.90;1.40;;;;;;;5.88;46.94;97893.97;5041011;28;20127;-72
2022/02/21 00:16:35;;;;;;;5.23;1.73;;;;;;;5.89;47.07;97874.50;5057161;28;20106;-72
2022/02/21 00:19:01;;;;;;;6.93;2.50;;;;;;;5.98;47.02;97899.03;5040552;28;20498;-71
2022/02/21 00:21:29;;;;;;;4.80;1.63;;;;;;;5.94;47.36;97903.81;5057300;28;20043;-72
2022/02/21 00:23:55;;;;;;;4.97;1.57;;;;;;;6.03;47.13;97896.69;5058439;28;20050;-72
2022/02/21 00:26:21;;;;;;;3.57;1.60;;;;;;;6.10;46.97;97909.03;5059902;28;20453;-71
2022/02/21 00:28:48;;;;;;;3.20;1.53;;;;;;;6.09;46.92;97899.44;5042250;28;20039;-72
2022/02/21 00:31:14;;;;;;;3.90;1.60;;;;;;;6.02;46.84;97881.88;5040603;28;20039;-72
2022/02/21 00:33:41;;;;;;;10.80;1.50;;;;;;;6.18;46.59;97906.31;5040720;28;20043;-72
2022/02/21 00:36:10;;;;;;;4.37;1.40;;;;;;;5.88;47.10;97877.31;5057214;28;20582;-72
2022/02/21 00:38:40;;;;;;;2.90;1.50;;;;;;;6.05;47.09;97894.69;5074904;28;20055;-72
2022/02/21 00:41:06;;;;;;;2.97;1.60;;;;;;;5.97;46.72;97895.56;5058036;28;20040;-72
2022/02/21 00:43:32;;;;;;;2.80;1.50;;;;;;;5.81;46.98;97844.75;5058134;28;20040;-72
2022/02/21 00:45:58;;;;;;;2.70;1.60;;;;;;;6.16;46.78;97892.50;5041925;28;20050;-71
2022/02/21 00:48:24;;;;;;;5.97;2.03;;;;;;;6.23;46.76;97895.25;5059456;28;20040;-72
2022/02/21 00:50:50;;;;;;;5.63;1.80;;;;;;;6.00;46.91;97878.56;5043075;28;20066;-72
2022/02/21 00:53:18;;;;;;;4.53;1.70;;;;;;;6.15;46.68;97874.25;5042708;28;20043;-72
2022/02/21 00:55:43;;;;;;;5.17;1.60;;;;;;;6.17;46.42;97866.97;5042613;28;20388;-72
2022/02/21 00:58:09;;;;;;;3.80;1.53;;;;;;;6.29;46.58;97863.75;5042562;28;20104;-72
2022/02/21 01:00:37;;;;;;;2.40;1.30;;;;;;;6.21;46.57;97870.91;5059409;28;20138;-73
2022/02/21 01:03:03;;;;;;;2.97;1.70;;;;;;;6.27;46.71;97878.91;5040690;28;20043;-73
2022/02/21 01:05:29;;;;;;;2.27;1.40;;;;;;;6.47;46.30;97881.94;5040340;28;20552;-72
2022/02/21 01:07:55;;;;;;;3.33;1.60;;;;;;;6.39;46.57;97872.28;5054422;28;20063;-73
2022/02/21 01:10:21;;;;;;;5.37;2.00;;;;;;;6.30;46.74;97877.78;5055507;28;20044;-73
2022/02/21 01:12:47;;;;;;;7.03;1.67;;;;;;;6.16;47.05;97862.69;5056009;28;20097;-72
2022/02/21 01:15:14;;;;;;;4.93;2.03;;;;;;;6.11;47.42;97859.75;5071750;28;20131;-72
2022/02/21 01:17:42;;;;;;;3.43;1.90;;;;;;;6.45;47.27;97873.38;5039239;28;20044;-73
2022/02/21 01:20:09;;;;;;;4.37;1.60;;;;;;;6.02;47.41;97839.72;5055649;28;20039;-73
2022/02/21 01:22:35;;;;;;;7.90;1.70;;;;;;;6.21;47.43;97866.44;5075075;28;20067;-73
2022/02/21 01:25:03;;;;;;;3.13;1.80;;;;;;;6.28;47.34;97874.47;5076239;28;20044;-73
2022/02/21 01:27:29;;;;;;;4.50;2.03;;;;;;;6.00;47.61;97865.41;5042741;28;20048;-73
2022/02/21 01:29:55;;;;;;;3.50;1.90;;;;;;;6.08;47.44;97845.13;5042864;28;20040;-73
2022/02/21 01:32:21;;;;;;;6.33;2.00;;;;;;;5.77;47.86;97815.28;5042802;28;20040;-73
2022/02/21 01:34:47;;;;;;;4.60;2.17;;;;;;;5.92;47.81;97824.13;5043223;28;20040;-73
2022/02/21 01:37:13;;;;;;;4.77;2.07;;;;;;;5.96;47.94;97835.13;5042879;28;20048;-73
2022/02/21 01:39:40;;;;;;;5.67;1.77;;;;;;;6.09;47.89;97817.75;5058908;28;20132;-73
2022/02/21 01:42:07;;;;;;;7.73;2.77;;;;;;;6.04;48.15;97856.19;5059165;28;20072;-74
2022/02/21 01:44:39;;;;;;;6.03;2.00;;;;;;;6.23;47.72;97824.91;5042566;28;20044;-73
2022/02/21 01:47:07;;;;;;;5.63;1.90;;;;;;;6.34;47.53;97845.63;5042203;28;20044;-73
2022/02/21 01:49:33;;;;;;;4.77;3.17;;;;;;;6.19;47.84;97855.28;5042355;28;20050;-73
2022/02/21 01:51:59;;;;;;;7.60;1.80;;;;;;;5.89;48.03;97842.91;5059624;28;20047;-74
2022/02/21 01:54:25;;;;;;;2.53;1.90;;;;;;;5.91;48.20;97834.81;5059980;28;20420;-74
2022/02/21 01:56:53;;;;;;;4.33;2.07;;;;;;;5.78;48.03;97806.38;5059076;28;20043;-72
2022/02/21 01:59:20;;;;;;;4.43;1.97;;;;;;;6.31;47.37;97837.22;5059250;28;20051;-72
2022/02/21 02:01:46;;;;;;;7.17;2.13;;;;;;;5.84;47.53;97815.44;5075328;28;20047;-72
2022/02/21 02:04:12;;;;;;;2.83;1.80;;;;;;;5.86;48.11;97816.91;5042327;28;20093;-72
2022/02/21 02:06:38;;;;;;;6.67;2.10;;;;;;;5.96;47.97;97837.78;5041903;28;20052;-72
2022/02/21 02:09:06;;;;;;;5.77;2.03;;;;;;;5.90;48.31;97839.28;5075413;28;20051;-73
2022/02/21 02:11:34;;;;;;;3.17;1.80;;;;;;;5.44;48.25;97758.50;5042130;28;20039;-72
2022/02/21 02:14:00;;;;;;;6.40;1.93;;;;;;;5.88;48.23;97824.63;5042303;28;20040;-74
2022/02/21 02:16:26;;;;;;;6.40;2.20;;;;;;;5.97;47.67;97848.13;5058752;28;20052;-72
2022/02/21 02:18:51;;;;;;;5.60;1.77;;;;;;;5.82;47.98;97833.22;5041881;28;20040;-72
2022/02/21 02:21:21;;;;;;;4.03;1.87;;;;;;;6.11;48.15;97836.88;5041831;28;20063;-72
2022/02/21 02:23:50;;;;;;;8.63;2.20;;;;;;;6.09;48.23;97859.13;5075150;28;20047;-71
2022/02/21 02:26:18;;;;;;;5.60;2.07;;;;;;;6.01;48.34;97838.09;5042136;28;20044;-71
2022/02/21 02:28:45;;;;;;;6.23;2.07;;;;;;;5.77;48.61;97822.34;5093621;28;20079;-71
2022/02/21 02:31:11;;;;;;;5.13;2.07;;;;;;;5.53;48.41;97828.56;5058304;28;20138;-73
2022/02/21 02:33:39;;;;;;;6.80;2.33;;;;;;;5.47;48.83;97829.25;5057683;28;20135;-72
2022/02/21 02:36:06;;;;;;;5.93;2.10;;;;;;;5.44;49.16;97832.22;5042140;28;20043;-73
2022/02/21 02:38:32;;;;;;;4.37;2.00;;;;;;;5.22;49.43;97810.06;5058421;28;20044;-73
2022/02/21 02:40:58;;;;;;;7.47;2.23;;;;;;;5.40;49.41;97825.63;5075124;28;20047;-72
2022/02/21 02:43:24;;;;;;;6.90;2.20;;;;;;;5.37;49.54;97844.41;5041544;28;20047;-73
2022/02/21 02:45:50;;;;;;;8.70;2.33;;;;;;;5.37;49.50;97838.31;5041670;28;20135;-73
2022/02/21 02:48:15;;;;;;;6.37;2.10;;;;;;;5.08;49.81;97812.56;5041377;28;20136;-72
2022/02/21 02:50:41;;;;;;;5.93;2.70;;;;;;;5.09;50.11;97814.19;5040993;28;20044;-73
2022/02/21 02:53:08;;;;;;;4.73;2.03;;;;;;;5.02;50.19;97818.50;5040957;28;20055;-72
2022/02/21 02:55:34;;;;;;;5.27;2.13;;;;;;;5.18;50.01;97834.28;5040990;28;20134;-73
2022/02/21 02:58:00;;;;;;;5.77;2.00;;;;;;;4.90;50.18;97806.69;5058233;28;20069;-73
2022/02/21 03:00:26;;;;;;;3.50;2.30;;;;;;;5.16;49.40;97776.56;5057417;28;20496;-73
2022/02/21 03:02:52;;;;;;;5.73;2.23;;;;;;;5.50;49.05;97823.63;5057617;28;20112;-71
2022/02/21 03:05:19;;;;;;;6.77;2.57;;;;;;;5.51;48.87;97838.44;5057571;28;20150;-71
2022/02/21 03:07:45;;;;;;;3.17;2.30;;;;;;;5.30;49.10;97829.44;5074393;28;20056;-71
2022/02/21 03:10:11;;;;;;;4.37;2.30;;;;;;;5.23;49.56;97819.59;5040800;28;20109;-71
2022/02/21 03:12:38;;;;;;;5.77;2.37;;;;;;;5.20;49.85;97829.63;5073719;28;20052;-72
2022/02/21 03:15:04;;;;;;;8.00;2.33;;;;;;;5.25;49.90;97837.84;5040874;28;20480;-75
2022/02/21 03:17:30;;;;;;;4.13;2.20;;;;;;;5.50;49.23;97830.69;5040712;28;20050;-71
2022/02/21 03:19:55;;;;;;;5.10;2.00;;;;;;;5.32;49.39;97843.28;5040591;28;20543;-71
2022/02/21 03:22:21;;;;;;;4.97;2.13;;;;;;;5.20;49.55;97804.16;5073729;28;20523;-71
2022/02/21 03:24:47;;;;;;;8.70;2.60;;;;;;;5.09;50.02;97828.19;5073662;28;20143;-72
2022/02/21 03:27:13;;;;;;;6.00;2.50;;;;;;;5.22;49.97;97840.81;5073485;28;20503;-72
2022/02/21 03:29:39;;;;;;;11.83;2.60;;;;;;;5.21;49.90;97839.19;5056760;28;20039;-72
2022/02/21 03:32:05;;;;;;;5.53;2.40;;;;;;;5.19;50.27;97813.06;5040052;28;20096;-74
2022/02/21 03:34:31;;;;;;;13.30;2.30;;;;;;;5.17;49.83;97829.97;5056959;28;20048;-71
2022/02/21 03:36:57;;;;;;;7.50;2.20;;;;;;;5.38;49.70;97859.22;5056748;28;20392;-71
2022/02/21 03:39:24;;;;;;;5.40;2.10;;;;;;;5.03;49.74;97786.78;5073273;28;20040;-71
2022/02/21 03:41:50;;;;;;;4.87;2.50;;;;;;;5.28;49.93;97844.59;5073262;28;20048;-71
2022/02/21 03:44:16;;;;;;;9.07;3.07;;;;;;;5.38;49.82;97817.09;5089218;28;20047;-71
2022/02/21 03:46:43;;;;;;;6.00;2.10;;;;;;;5.43;49.25;97825.28;5039431;28;20123;-72
2022/02/21 03:49:10;;;;;;;8.40;2.20;;;;;;;5.80;48.76;97809.66;5073028;28;20147;-71
2022/02/21 03:51:40;;;;;;;5.27;2.10;;;;;;;5.89;48.85;97818.41;5072640;28;20040;-72
2022/02/21 03:54:07;;;;;;;4.87;2.20;;;;;;;6.03;48.76;97821.09;5089994;28;20054;-73
2022/02/21 03:56:34;;;;;;;8.03;2.40;;;;;;;5.89;48.48;97826.28;5056707;28;20491;-71
2022/02/21 03:59:00;;;;;;;7.33;2.27;;;;;;;5.85;48.29;97812.66;5089491;28;20042;-71
2022/02/21 04:01:25;;;;;;;5.90;2.07;;;;;;;5.91;48.38;97813.75;5039803;28;20044;-72
2022/02/21 04:03:51;;;;;;;4.40;2.27;;;;;;;6.02;48.09;97816.00;5039415;28;20139;-71
2022/02/21 04:06:17;;;;;;;4.63;2.20;;;;;;;6.19;47.79;97831.56;5038390;28;20060;-72
2022/02/21 04:08:43;;;;;;;4.57;2.23;;;;;;;5.95;47.87;97821.13;5019717;28;20094;-72
2022/02/21 04:11:09;;;;;;;8.80;2.17;;;;;;;5.91;48.01;97814.59;5035717;28;20048;-72
2022/02/21 04:13:35;;;;;;;7.97;2.30;;;;;;;6.11;47.82;97814.94;5036476;28;20135;-71
2022/02/21 04:16:01;;;;;;;4.80;2.70;;;;;;;6.11;47.75;97815.78;5052900;28;20218;-72
2022/02/21 04:18:26;;;;;;;6.97;2.10;;;;;;;5.69;48.35;97801.34;5052893;28;20059;-73
2022/02/21 04:20:52;;;;;;;7.73;2.73;;;;;;;5.95;48.17;97805.31;5052718;28;20151;-72
2022/02/21 04:23:18;;;;;;;8.40;2.60;;;;;;;5.79;48.21;97815.09;5036039;28;20572;-72
2022/02/21 04:25:45;;;;;;;11.97;3.10;;;;;;;5.72;48.48;97811.53;5035721;28;20159;-72
2022/02/21 04:28:11;;;;;;;6.93;2.50;;;;;;;5.91;48.32;97834.81;5052417;28;20060;-74
2022/02/21 04:30:37;;;;;;;7.87;2.60;;;;;;;5.74;48.47;97823.53;5020352;28;20079;-72
2022/02/21 04:33:04;;;;;;;7.70;3.00;;;;;;;5.68;48.87;97812.84;5053104;28;20453;-72
2022/02/21 04:35:29;;;;;;;5.27;2.27;;;;;;;5.41;49.59;97818.56;5035939;28;20040;-72
2022/02/21 04:37:56;;;;;;;9.03;2.63;;;;;;;5.63;49.73;97808.09;5035827;28;20048;-73
2022/02/21 04:40:26;;;;;;;9.97;2.70;;;;;;;5.57;50.03;97811.41;5064398;28;20858;-73
2022/02/21 04:42:53;;;;;;;7.47;2.70;;;;;;;5.53;49.90;97822.47;5026435;28;20579;-77
2022/02/21 04:45:20;;;;;;;4.43;2.00;;;;;;;5.48;50.15;97814.25;5031086;28;20041;-73
2022/02/21 04:47:47;;;;;;;7.37;2.73;;;;;;;5.42;50.20;97821.03;5031276;28;20469;-74
2022/02/21 04:50:14;;;;;;;5.57;2.67;;;;;;;5.27;50.56;97824.53;4998746;28;20477;-75
2022/02/21 04:52:42;;;;;;;5.83;2.80;;;;;;;5.31;50.79;97825.81;5014632;28;20098;-73
2022/02/21 04:55:11;;;;;;;8.43;3.00;;;;;;;5.41;50.80;97818.56;5015134;28;20048;-76
2022/02/21 04:57:37;;;;;;;7.00;2.90;;;;;;;5.18;51.28;97823.75;5014587;28;20037;-74
2022/02/21 05:00:06;;;;;;;9.27;3.00;;;;;;;5.33;51.34;97823.84;5014467;28;20099;-73
2022/02/21 05:02:33;;;;;;;6.87;2.63;;;;;;;5.14;51.62;97839.03;5030444;28;20053;-73
2022/02/21 05:04:59;;;;;;;3.97;2.67;;;;;;;5.10;52.11;97834.28;4998706;28;20098;-75
2022/02/21 05:07:24;;;;;;;8.33;2.80;;;;;;;5.14;51.43;97820.63;5013605;28;20064;-73
2022/02/21 05:09:50;;;;;;;7.20;3.43;;;;;;;5.09;52.17;97822.91;5050615;28;20079;-73
2022/02/21 05:12:16;;;;;;;6.80;3.00;;;;;;;5.10;52.25;97819.28;5050403;28;20094;-74
2022/02/21 05:14:42;;;;;;;4.90;2.80;;;;;;;5.20;51.79;97821.75;5017266;28;20044;-74
2022/02/21 05:17:09;;;;;;;5.83;2.80;;;;;;;4.94;52.27;97793.03;5034251;28;20163;-74
2022/02/21 05:19:35;;;;;;;9.47;3.33;;;;;;;5.12;52.29;97813.84;5033969;28;20098;-72
2022/02/21 05:22:02;;;;;;;11.00;3.53;;;;;;;5.18;51.99;97813.22;5016816;28;20435;-72
2022/02/21 05:24:31;;;;;;;6.37;3.20;;;;;;;4.90;52.93;97806.69;5034552;28;20476;-73
2022/02/21 05:27:00;;;;;;;14.37;2.90;;;;;;;5.23;52.71;97816.13;5033397;28;20052;-72
2022/02/21 05:29:25;;;;;;;5.00;3.10;;;;;;;5.04;52.74;97819.16;5017376;28;20504;-74
2022/02/21 05:31:51;;;;;;;6.03;3.13;;;;;;;5.13;52.67;97824.25;5016938;28;20048;-72
2022/02/21 05:34:17;;;;;;;8.07;3.00;;;;;;;5.17;52.72;97835.22;5033973;28;20048;-72
2022/02/21 05:36:45;;;;;;;10.43;3.50;;;;;;;5.34;52.47;97826.31;5050138;28;20123;-73
2022/02/21 05:39:11;;;;;;;6.40;3.30;;;;;;;5.18;52.77;97834.28;5033842;28;20066;-74
2022/02/21 05:41:37;;;;;;;8.53;3.30;;;;;;;5.34;52.41;97834.22;5017776;28;20471;-72
2022/02/21 05:44:03;;;;;;;7.80;3.40;;;;;;;5.42;52.44;97838.63;5017721;28;20045;-68
2022/02/21 05:46:29;;;;;;;8.30;3.50;;;;;;;5.43;52.71;97835.81;5051533;28;20044;-67
2022/02/21 05:48:55;;;;;;;7.23;4.10;;;;;;;5.51;52.45;97834.97;5066606;28;20177;-69
2022/02/21 05:51:21;;;;;;;8.63;3.67;;;;;;;5.62;52.06;97837.22;5066970;28;20101;-68
2022/02/21 05:53:47;;;;;;;7.40;3.47;;;;;;;5.62;52.14;97847.78;5066980;28;20036;-70
2022/02/21 05:56:14;;;;;;;11.03;4.00;;;;;;;5.60;52.29;97842.66;5050107;28;20032;-70
2022/02/21 05:58:40;;;;;;;13.30;4.10;;;;;;;5.70;52.35;97831.94;5067113;28;20055;-69
2022/02/21 06:01:06;;;;;;;5.27;3.47;;;;;;;5.54;52.82;97845.16;5050526;28;20083;-70
2022/02/21 06:03:32;;;;;;;8.87;3.80;;;;;;;5.51;52.60;97833.16;5016902;28;20064;-68
2022/02/21 06:06:16;;;;;;;7.87;3.53;;;;;;;5.78;52.70;97847.72;5029362;28;20047;-68
2022/02/21 06:08:45;;;;;;;7.43;3.77;;;;;;;5.47;53.08;97836.31;5067949;28;20464;-67
2022/02/21 06:11:11;;;;;;;9.43;3.87;;;;;;;5.32;53.21;97832.75;5047271;28;20036;-69
2022/02/21 06:13:37;;;;;;;5.13;3.40;;;;;;;5.54;53.02;97842.53;5048133;28;20418;-69
2022/02/21 06:16:04;;;;;;;5.80;3.60;;;;;;;5.59;52.83;97835.78;5083031;28;20122;-70
2022/02/21 06:18:30;;;;;;;10.47;3.97;;;;;;;5.68;52.38;97840.00;5055701;28;20040;-69
2022/02/21 06:20:55;;;;;;;9.20;3.73;;;;;;;5.87;51.82;97815.94;5032111;28;20100;-70
2022/02/21 06:23:22;;;;;;;7.30;3.70;;;;;;;5.47;51.48;97742.38;5065336;28;20050;-71
2022/02/21 06:25:48;;;;;;;5.63;3.37;;;;;;;5.97;51.51;97844.66;5047237;28;20047;-69
2022/02/21 06:28:14;;;;;;;5.50;3.07;;;;;;;5.92;51.37;97826.75;5064024;28;20047;-71
2022/02/21 06:30:40;;;;;;;7.23;3.47;;;;;;;5.80;51.84;97817.56;5040457;28;20529;-72
2022/02/21 06:33:06;;;;;;;12.03;3.93;;;;;;;5.96;51.64;97828.06;5022039;28;20093;-72
2022/02/21 06:35:32;;;;;;;6.10;3.00;;;;;;;5.96;50.67;97840.41;5038350;28;20067;-72
2022/02/21 06:37:59;;;;;;;4.73;3.00;;;;;;;5.99;50.34;97843.53;5038846;28;20434;-70
2022/02/21 06:40:26;;;;;;;6.03;2.70;;;;;;;6.29;49.92;97852.38;5038266;28;20784;-71
2022/02/21 06:42:53;;;;;;;5.93;2.90;;;;;;;5.77;50.62;97851.31;5071605;28;20570;-74
2022/02/21 06:45:19;;;;;;;8.77;3.80;;;;;;;6.15;50.36;97830.25;5054323;28;20109;-71
2022/02/21 06:47:45;;;;;;;7.23;3.60;;;;;;;6.32;49.71;97837.06;5049709;28;20145;-72
2022/02/21 06:50:11;;;;;;;5.10;3.63;;;;;;;6.15;50.19;97840.78;5035215;28;20151;-72
2022/02/21 06:52:37;;;;;;;13.70;3.17;;;;;;;6.06;49.98;97848.91;5017666;28;20075;-71
2022/02/21 06:55:04;;;;;;;6.37;3.47;;;;;;;6.43;49.54;97856.91;5035302;28;20106;-71
2022/02/21 06:57:30;;;;;;;5.53;3.00;;;;;;;6.43;49.10;97854.28;5036653;28;20051;-71
2022/02/21 06:59:55;;;;;;;6.13;3.10;;;;;;;6.34;49.17;97845.63;5054833;28;20043;-71
2022/02/21 07:02:23;;;;;;;4.13;2.97;;;;;;;6.38;49.04;97830.28;5055893;28;20040;-71
2022/02/21 07:04:49;;;;;;;6.30;3.30;;;;;;;6.42;48.79;97853.47;5056301;28;20126;-71
2022/02/21 07:07:15;;;;;;;6.50;3.10;;;;;;;6.31;48.86;97845.97;5040097;28;20143;-70
2022/02/21 07:09:41;;;;;;;5.70;3.07;;;;;;;6.42;48.77;97845.56;5023850;28;20491;-70
2022/02/21 07:12:07;;;;;;;7.67;3.10;;;;;;;6.43;48.12;97807.66;5022942;28;20047;-72
2022/02/21 07:14:34;;;;;;;7.23;3.03;;;;;;;6.72;47.75;97831.47;5039194;28;20139;-70
2022/02/21 07:17:00;;;;;;;8.53;3.17;;;;;;;6.92;47.34;97844.19;5073117;28;21382;-70
2022/02/21 07:19:27;;;;;;;5.90;3.30;;;;;;;6.84;47.15;97818.69;5055090;28;20159;-70
2022/02/21 07:21:53;;;;;;;3.93;2.90;;;;;;;7.10;46.75;97839.38;5056045;28;20043;-71
2022/02/21 07:24:19;;;;;;;6.60;2.80;;;;;;;7.16;46.65;97854.50;5072409;28;20052;-70
2022/02/21 07:26:45;;;;;;;8.27;3.77;;;;;;;7.20;46.18;97840.75;5022341;28;20344;-69
2022/02/21 07:29:12;;;;;;;5.97;3.50;;;;;;;7.10;46.34;97845.50;5055884;28;20124;-68
2022/02/21 07:31:38;;;;;;;9.97;3.50;;;;;;;7.10;46.16;97853.41;5039471;28;20044;-69
2022/02/21 07:34:04;;;;;;;8.63;3.70;;;;;;;7.09;46.56;97837.75;5038405;28;20063;-69
2022/02/21 07:36:30;;;;;;;9.87;4.07;;;;;;;7.01;46.90;97846.56;5038809;28;20086;-69
2022/02/21 07:38:56;;;;;;;6.33;3.97;;;;;;;6.93;47.03;97840.53;5055204;28;20104;-69
2022/02/21 07:41:22;;;;;;;7.60;4.23;;;;;;;7.08;46.71;97833.47;5055103;28;20040;-67
2022/02/21 07:43:48;;;;;;;8.27;4.00;;;;;;;7.00;46.75;97828.25;5055162;28;20062;-70
2022/02/21 07:46:13;;;;;;;9.83;5.23;;;;;;;7.00;46.83;97849.38;5038360;28;20453;-70
2022/02/21 07:48:39;;;;;;;12.13;5.03;;;;;;;7.06;46.92;97846.03;5090216;28;20052;-68
2022/02/21 07:51:06;;;;;;;12.53;4.80;;;;;;;7.14;46.87;97840.66;5055544;28;20044;-69
2022/02/21 07:53:32;;;;;;;7.20;3.93;;;;;;;7.20;46.54;97850.50;5050927;28;20075;-69
2022/02/21 07:55:58;;;;;;;9.30;4.37;;;;;;;7.19;46.39;97822.47;5037896;28;20079;-68
2022/02/21 07:58:24;;;;;;;7.07;3.90;;;;;;;7.46;46.00;97846.41;5038000;28;20420;-68
2022/02/21 08:00:50;;;;;;;7.67;4.43;;;;;;;7.37;46.16;97852.78;5037715;28;20055;-69
2022/02/21 08:03:16;;;;;;;7.63;3.90;;;;;;;6.93;46.73;97852.72;5055653;28;20047;-69
2022/02/21 08:05:43;;;;;;;8.23;5.13;;;;;;;7.12;46.95;97850.59;5071748;28;20039;-69
2022/02/21 08:08:09;;;;;;;7.87;3.67;;;;;;;7.14;47.06;97864.41;5071153;28;20412;-70
2022/02/21 08:10:35;;;;;;;8.13;4.90;;;;;;;6.93;47.82;97865.13;5058462;28;20043;-70
2022/02/21 08:13:02;;;;;;;6.43;3.27;;;;;;;6.84;47.82;97861.72;5109172;28;20230;-69
2022/02/21 08:15:29;;;;;;;9.20;4.50;;;;;;;6.98;47.60;97869.84;5040909;28;20501;-69
2022/02/21 08:17:55;;;;;;;8.37;4.67;;;;;;;6.75;47.89;97840.84;5057877;28;20042;-69
2022/02/21 08:20:23;;;;;;;12.53;5.20;;;;;;;7.02;48.19;97871.94;5058057;28;20351;-69
2022/02/21 08:22:49;;;;;;;10.20;4.87;;;;;;;6.83;48.48;97859.25;5074783;28;20054;-68
2022/02/21 08:25:16;;;;;;;10.57;4.50;;;;;;;6.85;48.71;97873.09;5090848;28;20116;-67
2022/02/21 08:27:43;;;;;;;8.97;4.47;;;;;;;6.88;48.73;97865.66;5057417;28;20039;-68
2022/02/21 08:30:12;;;;;;;9.63;4.67;;;;;;;7.03;48.76;97870.16;5074909;28;20062;-70
2022/02/21 08:32:38;;;;;;;11.10;4.30;;;;;;;6.78;48.79;97856.34;5091576;28;20124;-69
2022/02/21 08:35:05;;;;;;;7.43;3.60;;;;;;;6.81;48.38;97854.16;5091281;28;20054;-68
2022/02/21 08:37:31;;;;;;;10.90;3.93;;;;;;;6.91;47.84;97859.19;5091741;28;20044;-68
2022/02/21 08:39:56;;;;;;;6.60;3.90;;;;;;;7.11;47.48;97862.97;5057816;28;20035;-68
2022/02/21 08:42:22;;;;;;;12.83;4.17;;;;;;;7.00;48.03;97857.28;5057482;28;20048;-69
2022/02/21 08:44:48;;;;;;;6.80;4.27;;;;;;;6.96;48.04;97848.91;5075145;28;20039;-69
2022/02/21 08:47:17;;;;;;;8.80;4.57;;;;;;;6.99;48.34;97859.13;5058213;28;20046;-69
2022/02/21 08:49:44;;;;;;;10.57;4.47;;;;;;;7.23;47.96;97858.06;5058081;28;20043;-68
2022/02/21 08:52:10;;;;;;;9.53;4.40;;;;;;;6.96;47.79;97824.34;5074892;28;20515;-68
2022/02/21 08:54:36;;;;;;;10.60;4.47;;;;;;;7.14;47.88;97853.84;5109580;28;20130;-68
2022/02/21 08:57:05;;;;;;;9.70;4.97;;;;;;;7.20;48.07;97847.84;5074641;28;20486;-69
2022/02/21 08:59:32;;;;;;;7.97;4.63;;;;;;;7.10;48.26;97860.50;5074508;28;20510;-69
2022/02/21 09:01:58;;;;;;;12.87;4.80;;;;;;;7.05;48.17;97862.84;5074897;28;20043;-68
2022/02/21 09:04:24;;;;;;;12.33;4.50;;;;;;;6.95;48.17;97860.47;5057689;28;20039;-69
2022/02/21 09:06:50;;;;;;;6.60;3.57;;;;;;;6.81;48.29;97867.34;5052662;28;20060;-71
2022/02/21 09:09:18;;;;;;;11.47;4.23;;;;;;;7.29;47.72;97852.88;5065260;28;20057;-69
2022/02/21 09:11:45;;;;;;;9.20;4.27;;;;;;;7.39;46.94;97866.66;5037188;28;20047;-69
2022/02/21 09:14:11;;;;;;;9.90;4.20;;;;;;;7.41;47.18;97869.09;5055514;28;20054;-69
2022/02/21 09:16:37;;;;;;;9.60;4.47;;;;;;;7.28;46.55;97831.94;5087648;28;20044;-69
2022/02/21 09:19:03;;;;;;;6.30;4.00;;;;;;;7.41;46.47;97840.06;5053913;28;20253;-72
2022/02/21 09:21:29;;;;;;;10.25;3.83;;;;;;;7.76;45.98;97871.84;5054185;28;20036;-68
2022/02/21 09:23:55;;;;;;;6.90;3.80;;;;;;;7.86;45.14;97874.19;5070787;28;20097;-68
2022/02/21 09:26:21;;;;;;;5.53;3.58;;;;;;;7.99;44.96;97892.88;5053772;28;20040;-69
2022/02/21 09:28:47;;;;;;;7.88;3.65;;;;;;;7.90;45.11;97891.34;5070076;28;20048;-68
2022/02/21 09:31:13;;;;;;;9.02;3.70;;;;;;;7.77;45.19;97883.22;5071324;28;20038;-69
2022/02/21 09:33:39;;;;;;;9.35;3.67;;;;;;;7.73;45.63;97884.59;5070937;28;20550;-68
2022/02/21 09:36:05;;;;;;;7.35;4.13;;;;;;;7.65;45.34;97888.16;5053672;28;20744;-69
2022/02/21 09:38:31;;;;;;;5.90;3.72;;;;;;;7.67;44.95;97866.84;5036998;28;20083;-71
2022/02/21 09:40:57;;;;;;;8.73;4.07;;;;;;;6.77;47.11;97873.97;5071120;28;20079;-68
2022/02/21 09:43:26;;;;;;;5.40;3.43;;;;;;;6.93;46.77;97863.28;5033875;28;20383;-68
2022/02/21 09:46:06;;;;;;;9.00;4.00;;;;;;;7.66;45.33;97875.75;5092687;28;20130;-68
2022/02/21 09:48:35;;;;;;;6.73;3.23;;;;;;;7.63;45.41;97878.75;5093960;28;20051;-68
2022/02/21 09:51:01;;;;;;;8.23;4.00;;;;;;;7.04;46.28;97862.06;5077496;28;20376;-70
2022/02/21 09:53:32;;;;;;;8.90;3.67;;;;;;;7.65;45.52;97868.84;5077468;28;20137;-68
2022/02/21 09:55:58;;;;;;;10.38;3.63;;;;;;;7.59;45.09;97872.19;5061209;28;20043;-69
2022/02/21 09:58:24;;;;;;;13.23;3.60;;;;;;;7.53;44.37;97841.25;5077757;28;20042;-69
2022/02/21 10:00:51;;;;;;;7.95;3.75;;;;;;;7.90;44.17;97863.06;5078758;28;20505;-68
2022/02/21 10:03:39;;;;;;;7.47;3.57;;;;;;;8.36;43.78;97864.47;5074361;28;20044;-66
2022/02/21 10:06:16;;;;;;;8.75;3.50;;;;;;;8.44;43.62;97867.00;5061426;28;20047;-68
2022/02/21 10:09:09;;;;;;;10.35;4.10;;;;;;;8.54;43.16;97862.22;5041047;28;20044;-71
2022/02/21 10:11:44;;;;;;;7.55;3.47;;;;;;;8.31;43.38;97860.75;5072668;28;20470;-69
2022/02/21 10:14:21;;;;;;;9.65;3.33;;;;;;;8.15;43.33;97827.38;5024325;28;20046;-69
2022/02/21 10:16:48;;;;;;;9.65;3.55;;;;;;;8.22;43.23;97860.06;5090808;28;20048;-69
2022/02/21 10:19:22;;;;;;;6.03;3.40;;;;;;;8.57;42.50;97858.38;5073421;28;20070;-70
2022/02/21 10:22:02;;;;;;;11.15;3.80;;;;;;;9.10;41.79;97863.13;5056384;28;20047;-67
2022/02/21 10:24:49;;;;;;;6.63;3.20;;;;;;;9.48;40.14;97851.19;5040676;28;20120;-67
2022/02/21 10:27:23;;;;;;;9.32;4.00;;;;;;;10.62;38.83;97850.47;5072952;28;20123;-70
2022/02/21 10:29:53;;;;;;;6.85;3.28;;;;;;;13.28;33.95;97851.44;5058928;28;20090;-70
2022/02/21 10:32:24;;;;;;;6.95;2.72;;;;;;;14.89;29.93;97834.78;5072812;28;20051;-69
2022/02/21 10:34:51;;;;;;;6.72;2.45;;;;;;;14.29;28.82;97822.47;5023030;28;20129;-71
2022/02/21 10:37:23;;;;;;;10.57;3.13;;;;;;;14.56;29.45;97845.13;5091522;28;20063;-69
2022/02/21 10:39:49;;;;;;;12.25;3.42;;;;;;;13.16;31.14;97847.88;5039512;28;20092;-68
2022/02/21 10:42:27;;;;;;;9.02;3.05;;;;;;;12.30;33.14;97835.28;5039473;28;20112;-68
2022/02/21 10:44:53;;;;;;;7.22;3.72;;;;;;;11.46;34.56;97823.06;5056648;28;20047;-68
2022/02/21 10:47:20;;;;;;;7.95;3.28;;;;;;;11.03;35.66;97813.91;5073246;28;20044;-67
2022/02/21 10:49:47;;;;;;;8.48;3.80;;;;;;;10.62;36.63;97824.75;5039655;28;20043;-69
2022/02/21 10:52:17;;;;;;;9.32;4.28;;;;;;;10.52;37.47;97818.19;5039603;28;20048;-69
2022/02/21 10:54:43;;;;;;;10.80;4.20;;;;;;;10.94;36.89;97831.09;5055175;28;20763;-67
2022/02/21 10:57:10;;;;;;;11.43;3.90;;;;;;;11.96;35.16;97838.31;5037279;28;20044;-68
2022/02/21 10:59:37;;;;;;;11.32;3.78;;;;;;;12.77;33.66;97832.16;5077838;28;20082;-68
2022/02/21 11:02:04;;;;;;;7.63;3.78;;;;;;;12.99;33.05;97832.63;5070210;28;20097;-68
2022/02/21 11:04:30;;;;;;;10.02;4.28;;;;;;;14.12;31.53;97832.09;5050837;28;20405;-68
2022/02/21 11:06:58;;;;;;;7.50;3.40;;;;;;;13.78;31.27;97814.84;5042100;28;20580;-68
2022/02/21 11:09:26;;;;;;;8.73;3.97;;;;;;;13.24;32.43;97817.44;5059689;28;20138;-68
2022/02/21 11:11:53;;;;;;;9.48;3.95;;;;;;;12.52;33.58;97803.84;5109924;28;20039;-68
2022/02/21 11:14:22;;;;;;;8.60;4.20;;;;;;;12.02;33.92;97816.19;5075516;28;20053;-69
2022/02/21 11:16:49;;;;;;;11.30;4.38;;;;;;;11.40;35.20;97810.63;5042483;28;20507;-68
2022/02/21 11:19:19;;;;;;;9.43;4.20;;;;;;;10.84;36.29;97774.91;5059271;28;20043;-69
2022/02/21 11:21:46;;;;;;;10.50;4.50;;;;;;;10.13;37.51;97813.59;5041666;28;20092;-69
2022/02/21 11:24:14;;;;;;;8.80;3.65;;;;;;;9.65;38.46;97796.03;5092881;28;20100;-68
2022/02/21 11:27:24;;;;;;;12.07;3.67;;;;;;;9.51;39.23;97811.06;5042766;28;20062;-69
2022/02/21 11:30:14;;;;;;;7.45;3.28;;;;;;;9.06;39.83;97816.03;5033241;28;20053;-68
2022/02/21 11:33:00;;;;;;;7.53;3.70;;;;;;;8.85;40.26;97822.22;5042019;28;20044;-69
2022/02/21 11:35:26;;;;;;;6.80;3.45;;;;;;;8.20;41.08;97832.94;5075848;28;20043;-68
2022/02/21 11:37:51;;;;;;;9.68;3.50;;;;;;;8.13;41.70;97808.22;5092093;28;20040;-69
2022/02/21 11:40:17;;;;;;;7.78;3.72;;;;;;;8.41;41.32;97811.81;5058876;28;20579;-69